Time;durP1;ratioP1;P1;durP2;ratioP2;P2;SDS_P1;SDS_P2;PMS_P1;PMS_P2;Temp;Humidity;BMP_temperature;BMP_pressure;BME280_temperature;BME280_humidity;BME280_pressure;Samples;Min_cycle;Max_cycle;Signal;HPM_P1;HPM_P2
2021/07/15 00:00:40;;;;;;;;;15.75;15.75;;;;;23.14;50.58;101247.44;5079900;27;45409;-48
2021/07/15 00:03:08;;;;;;;;;17.75;16.00;;;;;23.16;49.96;101245.56;5079116;27;45330;-52
2021/07/15 00:05:35;;;;;;;;;10.00;9.00;;;;;23.15;50.38;101233.28;5079323;27;46345;-48
2021/07/15 00:08:01;;;;;;;;;15.50;14.00;;;;;23.15;50.15;101238.56;5079338;27;45400;-49
2021/07/15 00:10:37;;;;;;;;;18.00;14.25;;;;;23.16;50.34;101240.28;5079353;27;45400;-52
2021/07/15 00:13:04;;;;;;;;;14.75;14.50;;;;;23.15;50.33;101246.50;5079169;27;46192;-50
2021/07/15 00:15:32;;;;;;;;;14.00;13.50;;;;;23.16;50.02;101236.75;5078967;27;45295;-47
2021/07/15 00:17:59;;;;;;;;;12.25;11.25;;;;;23.15;50.51;101225.34;5079317;27;45335;-54
2021/07/15 00:20:25;;;;;;;;;12.50;12.50;;;;;23.17;50.17;101233.19;5077939;28;45504;-48
2021/07/15 00:22:50;;;;;;;;;11.00;11.00;;;;;23.16;50.38;101232.34;5079166;28;46214;-48
2021/07/15 00:25:19;;;;;;;;;12.25;12.00;;;;;23.16;50.01;101245.56;5078166;28;45371;-58
2021/07/15 00:27:46;;;;;;;;;14.50;13.50;;;;;23.14;50.01;101233.38;5078761;27;45314;-49
2021/07/15 00:30:12;;;;;;;;;10.50;10.50;;;;;23.15;50.14;101241.22;5079074;27;45497;-54
2021/07/15 00:32:38;;;;;;;;;12.00;10.00;;;;;23.16;50.38;101240.28;5077474;27;48028;-48
2021/07/15 00:35:05;;;;;;;;;10.50;10.50;;;;;23.15;50.24;101237.72;5078723;28;45231;-48
2021/07/15 00:37:31;;;;;;;;;9.75;9.75;;;;;23.15;50.06;101251.78;5078896;27;45498;-48
2021/07/15 00:39:56;;;;;;;;;11.00;10.25;;;;;23.15;49.89;101240.38;5078943;27;45534;-49
2021/07/15 00:42:22;;;;;;;;;11.25;10.25;;;;;23.13;49.87;101248.38;5078898;27;45404;-51
2021/07/15 00:44:47;;;;;;;;;13.00;12.50;;;;;23.13;49.86;101248.38;5078403;27;45403;-52
2021/07/15 00:47:12;;;;;;;;;10.75;9.50;;;;;23.15;50.13;101250.94;5078666;27;45399;-52
2021/07/15 00:49:38;;;;;;;;;9.25;9.25;;;;;23.13;49.79;101253.66;5078785;27;45674;-49
2021/07/15 00:52:03;;;;;;;;;13.00;12.00;;;;;23.13;50.25;101260.75;5078479;27;46449;-57
2021/07/15 00:54:29;;;;;;;;;12.00;11.00;;;;;23.14;50.33;101259.81;5078397;27;45307;-52
2021/07/15 00:56:55;;;;;;;;;11.00;10.50;;;;;23.15;49.89;101265.00;5078872;27;45376;-51
2021/07/15 00:59:21;;;;;;;;;10.75;9.50;;;;;23.11;50.29;101250.25;5078697;27;45233;-52
2021/07/15 01:01:47;;;;;;;;;10.75;10.75;;;;;23.14;50.03;101268.59;5078233;27;45285;-55
2021/07/15 01:04:13;;;;;;;;;11.50;10.00;;;;;23.11;49.91;101249.44;5078477;28;45280;-52
2021/07/15 01:06:38;;;;;;;;;10.75;10.25;;;;;23.14;50.52;101262.47;5078435;27;45349;-51
2021/07/15 01:09:04;;;;;;;;;12.00;10.00;;;;;23.14;50.36;101260.66;5078541;28;45541;-50
2021/07/15 01:11:50;;;;;;;;;10.75;10.75;;;;;23.12;49.84;101257.25;5078110;27;45276;-49
2021/07/15 01:14:23;;;;;;;;;11.25;11.25;;;;;23.13;49.93;101256.31;5078149;27;45462;-48
2021/07/15 01:17:00;;;;;;;;;11.50;9.50;;;;;23.13;49.97;101260.75;5078280;28;45308;-50
2021/07/15 01:19:37;;;;;;;;;10.75;10.50;;;;;23.13;50.06;101258.94;5078806;27;45531;-55
2021/07/15 01:22:06;;;;;;;;;12.25;10.25;;;;;23.13;50.30;101264.25;5077951;28;45539;-54
2021/07/15 01:24:50;;;;;;;;;11.75;11.75;;;;;23.13;49.96;101269.53;5078127;27;45443;-56
2021/07/15 01:27:46;;;;;;;;;14.00;9.50;;;;;23.12;50.18;101264.34;5078118;28;45224;-56
2021/07/15 01:30:17;;;;;;;;;12.00;10.75;;;;;23.12;49.97;101267.81;5078257;28;45330;-55
2021/07/15 01:33:08;;;;;;;;;9.75;9.25;;;;;23.12;50.27;101267.81;5077674;27;47203;-56
2021/07/15 01:35:47;;;;;;;;;12.25;12.00;;;;;23.11;50.25;101271.41;5077660;27;45298;-53
2021/07/15 01:38:15;;;;;;;;;11.50;11.50;;;;;23.13;50.35;101280.09;5077527;27;45465;-55
2021/07/15 01:40:45;;;;;;;;;10.00;8.00;;;;;23.11;50.00;101260.00;5078176;28;45334;-58
2021/07/15 01:43:16;;;;;;;;;12.00;11.00;;;;;23.12;50.37;101264.34;5077566;27;46312;-58
2021/07/15 01:45:42;;;;;;;;;10.75;10.75;;;;;23.11;50.02;101260.84;5077674;27;45306;-54
2021/07/15 01:48:09;;;;;;;;;13.00;12.00;;;;;23.11;50.24;101252.91;5077844;28;45322;-54
2021/07/15 01:50:35;;;;;;;;;11.75;10.00;;;;;23.12;50.50;101265.19;5077953;27;45224;-52
2021/07/15 01:53:01;;;;;;;;;10.00;8.50;;;;;23.11;50.11;101255.53;5076220;27;48860;-54
2021/07/15 01:55:28;;;;;;;;;10.50;10.25;;;;;23.11;50.31;101268.75;5077662;27;45800;-51
2021/07/15 01:57:54;;;;;;;;;13.00;12.00;;;;;23.12;50.02;101267.00;5077916;27;45303;-55
2021/07/15 02:00:20;;;;;;;;;10.00;9.00;;;;;23.11;50.21;101266.13;5077756;27;45407;-55
2021/07/15 02:02:46;;;;;;;;;12.50;9.00;;;;;23.11;50.10;101268.75;5077345;27;45459;-51
2021/07/15 02:05:12;;;;;;;;;9.25;9.25;;;;;23.09;49.92;101254.81;5077431;27;45807;-52
2021/07/15 02:07:40;;;;;;;;;10.25;10.00;;;;;23.10;50.05;101258.28;5077481;27;45307;-54
2021/07/15 02:10:09;;;;;;;;;11.25;10.50;;;;;23.11;50.24;101255.53;5077478;27;45338;-52
2021/07/15 02:12:36;;;;;;;;;7.50;7.50;;;;;23.10;50.28;101260.94;5077109;27;46180;-53
2021/07/15 02:15:04;;;;;;;;;9.75;9.75;;;;;23.10;50.37;101255.66;5077162;27;45852;-58
2021/07/15 02:17:35;;;;;;;;;10.00;9.00;;;;;23.11;50.14;101268.75;5077338;27;45278;-57
2021/07/15 02:20:02;;;;;;;;;10.25;10.25;;;;;23.12;50.30;101261.69;5077450;28;45403;-55
2021/07/15 02:22:28;;;;;;;;;10.00;10.00;;;;;23.10;50.38;101261.78;5077267;27;46407;-56
2021/07/15 02:24:54;;;;;;;;;13.00;12.25;;;;;23.10;50.03;101259.13;5077115;27;45395;-58
2021/07/15 02:27:20;;;;;;;;;9.00;9.00;;;;;23.11;50.22;101260.00;5077194;27;45277;-56
2021/07/15 02:29:45;;;;;;;;;9.25;7.75;;;;;23.11;50.31;101252.91;5077382;28;45415;-56
2021/07/15 02:32:13;;;;;;;;;12.00;10.00;;;;;23.10;50.22;101256.50;5076965;27;46246;-58
2021/07/15 02:34:45;;;;;;;;;10.75;10.75;;;;;23.10;50.63;101253.84;5076792;27;45710;-59
2021/07/15 02:37:13;;;;;;;;;11.50;10.00;;;;;23.10;50.15;101264.41;5077084;27;45427;-58
2021/07/15 02:39:39;;;;;;;;;13.00;11.25;;;;;23.10;50.49;101243.28;5075730;28;45448;-59
2021/07/15 02:42:04;;;;;;;;;11.75;9.00;;;;;23.10;50.30;101245.06;5076765;27;46077;-58
2021/07/15 02:44:30;;;;;;;;;11.25;10.25;;;;;23.09;50.19;101241.59;5077122;27;45464;-57
2021/07/15 02:46:56;;;;;;;;;9.00;8.75;;;;;23.10;50.52;101239.78;5077283;27;45338;-59
2021/07/15 02:49:21;;;;;;;;;11.50;9.75;;;;;23.10;50.53;101235.34;5076254;28;45222;-56
2021/07/15 02:51:46;;;;;;;;;11.75;10.25;;;;;23.10;50.44;101231.84;5076584;27;46416;-58
2021/07/15 02:54:13;;;;;;;;;11.00;10.00;;;;;23.07;50.33;101226.75;5076590;27;45388;-59
2021/07/15 02:56:56;;;;;;;;;9.25;9.25;;;;;23.09;50.52;101241.59;5076873;27;45346;-58
2021/07/15 02:59:29;;;;;;;;;10.25;9.00;;;;;23.09;50.18;101241.59;5077100;27;45403;-56
2021/07/15 03:02:22;;;;;;;;;9.75;9.75;;;;;23.09;50.39;101235.44;5076599;27;45333;-59
2021/07/15 03:05:01;;;;;;;;;9.00;8.75;;;;;23.07;50.08;101224.97;5066661;28;45303;-52
2021/07/15 03:07:30;;;;;;;;;9.00;9.00;;;;;23.08;50.10;101224.03;5076955;27;45420;-48
2021/07/15 03:09:57;;;;;;;;;13.50;11.00;;;;;23.09;50.39;101219.56;5076766;28;45452;-52
2021/07/15 03:12:24;;;;;;;;;10.00;8.75;;;;;23.07;50.54;101218.81;5076455;27;45330;-60
2021/07/15 03:14:54;;;;;;;;;8.00;8.00;;;;;23.09;50.48;101225.72;5076423;27;45322;-57
2021/07/15 03:17:34;;;;;;;;;13.00;9.50;;;;;23.08;50.46;101216.09;5076465;27;45238;-56
2021/07/15 03:20:04;;;;;;;;;11.00;9.25;;;;;23.08;50.52;101229.31;5077154;27;45386;-49
2021/07/15 03:22:33;;;;;;;;;8.25;8.25;;;;;23.07;50.32;101227.63;5075394;28;47221;-50
2021/07/15 03:25:06;;;;;;;;;10.75;9.00;;;;;23.09;50.63;101240.72;5076672;27;45354;-51
2021/07/15 03:27:34;;;;;;;;;9.00;9.00;;;;;23.06;50.44;101231.19;5075380;28;45391;-53
2021/07/15 03:30:01;;;;;;;;;10.50;9.75;;;;;23.08;50.23;101239.88;5076930;27;45503;-53
2021/07/15 03:32:28;;;;;;;;;10.25;10.25;;;;;23.07;50.43;101240.81;5076216;27;46187;-52
2021/07/15 03:34:54;;;;;;;;;9.25;9.00;;;;;23.07;50.52;101248.75;5076177;27;45726;-50
2021/07/15 03:37:20;;;;;;;;;10.50;10.50;;;;;23.08;50.68;101250.47;5074926;27;45415;-50
2021/07/15 03:39:48;;;;;;;;;10.00;10.00;;;;;23.07;50.60;101246.13;5076053;27;45375;-54
2021/07/15 03:42:15;;;;;;;;;10.00;8.50;;;;;23.06;50.59;101233.84;5075940;28;45950;-57
2021/07/15 03:44:41;;;;;;;;;9.25;9.25;;;;;23.05;50.31;101240.06;5076063;28;45662;-56
2021/07/15 03:47:07;;;;;;;;;12.00;10.25;;;;;23.05;50.11;101247.13;5076151;27;45375;-57
2021/07/15 03:49:33;;;;;;;;;11.00;9.75;;;;;23.05;50.66;101247.13;5076569;27;45469;-52
2021/07/15 03:52:00;;;;;;;;;10.75;10.75;;;;;23.05;50.41;101245.34;5076153;27;46363;-58
2021/07/15 03:54:26;;;;;;;;;9.75;9.75;;;;;23.06;50.46;101239.13;5075834;27;45397;-54
2021/07/15 03:56:53;;;;;;;;;8.50;8.50;;;;;23.06;50.78;101236.47;5075966;28;45400;-56
2021/07/15 03:59:20;;;;;;;;;11.50;9.75;;;;;23.07;50.59;101240.81;5076139;27;45548;-58
2021/07/15 04:02:05;;;;;;;;;8.50;8.25;;;;;23.06;50.58;101236.47;5078966;27;46286;-57
2021/07/15 04:04:31;;;;;;;;;9.25;8.00;;;;;23.08;50.55;101239.03;5079820;27;45812;-58
2021/07/15 04:07:03;;;;;;;;;10.00;9.25;;;;;23.06;50.53;101236.47;5079403;27;45348;-52
2021/07/15 04:09:33;;;;;;;;;10.50;9.75;;;;;23.06;50.58;101236.47;5079643;27;45377;-59
2021/07/15 04:12:00;;;;;;;;;9.25;9.25;;;;;23.06;50.33;101241.78;5079137;27;45421;-58
2021/07/15 04:14:44;;;;;;;;;11.00;10.25;;;;;23.06;50.44;101247.06;5079079;27;45425;-50
2021/07/15 04:17:12;;;;;;;;;9.75;9.50;;;;;23.05;51.20;101234.78;5079185;27;45294;-59
2021/07/15 04:19:39;;;;;;;;;9.50;8.75;;;;;23.06;50.39;101246.19;5079395;27;45584;-59
2021/07/15 04:22:08;;;;;;;;;9.00;9.00;;;;;23.06;50.59;101244.41;5078978;27;46145;-55
2021/07/15 04:24:34;;;;;;;;;11.50;11.50;;;;;23.05;50.42;101245.34;5079363;27;45261;-59
2021/07/15 04:27:03;;;;;;;;;10.25;10.00;;;;;23.05;50.45;101255.94;5079500;28;45524;-58
2021/07/15 04:29:30;;;;;;;;;11.50;10.25;;;;;23.07;50.62;101250.53;5079206;27;45526;-58
2021/07/15 04:32:02;;;;;;;;;10.25;9.00;;;;;23.06;50.78;101257.63;5078790;27;46164;-58
2021/07/15 04:34:30;;;;;;;;;10.00;9.25;;;;;23.05;50.71;101261.22;5078792;27;45460;-57
2021/07/15 04:36:57;;;;;;;;;10.25;10.25;;;;;23.05;50.60;101260.34;5079020;27;45406;-52
2021/07/15 04:39:26;;;;;;;;;11.50;10.75;;;;;23.05;50.83;101263.84;5078988;27;45525;-52
2021/07/15 04:41:53;;;;;;;;;9.00;9.00;;;;;23.05;50.50;101257.69;5078672;27;47367;-50
2021/07/15 04:44:19;;;;;;;;;11.00;10.75;;;;;23.05;50.73;101255.94;5078736;27;45950;-52
2021/07/15 04:46:46;;;;;;;;;10.50;10.50;;;;;23.05;50.67;101261.22;5078833;27;45378;-52
2021/07/15 04:49:12;;;;;;;;;5.50;5.50;;;;;23.04;50.45;101253.38;5078953;27;45538;-59
2021/07/15 04:51:40;;;;;;;;;11.00;10.00;;;;;23.05;50.74;101265.63;5077250;27;45643;-58
2021/07/15 04:54:08;;;;;;;;;11.00;10.00;;;;;23.04;50.63;101264.78;5078866;27;45853;-53
2021/07/15 04:56:34;;;;;;;;;11.00;10.75;;;;;23.05;50.45;101265.63;5078803;27;45373;-53
2021/07/15 04:59:02;;;;;;;;;10.75;10.75;;;;;23.05;50.60;101263.00;5078720;27;45330;-58
2021/07/15 05:01:27;;;;;;;;;11.75;9.75;;;;;23.05;50.80;101269.16;5078337;27;46339;-55
2021/07/15 05:03:53;;;;;;;;;10.75;10.00;;;;;23.05;50.46;101269.16;5078300;27;45224;-51
2021/07/15 05:06:19;;;;;;;;;11.25;9.50;;;;;23.04;50.60;101272.72;5078488;28;45224;-56
2021/07/15 05:08:44;;;;;;;;;13.25;10.75;;;;;23.04;50.44;101264.78;5078591;27;45360;-51
2021/07/15 05:11:12;;;;;;;;;10.00;10.00;;;;;23.03;50.63;101265.72;5078063;27;46224;-48
2021/07/15 05:13:37;;;;;;;;;14.00;10.50;;;;;23.06;50.55;101264.69;5077567;28;45425;-48
2021/07/15 05:16:03;;;;;;;;;12.00;10.25;;;;;23.04;50.53;101270.09;5078602;27;45445;-54
2021/07/15 05:18:28;;;;;;;;;9.75;9.75;;;;;23.05;50.74;101265.63;5078396;28;45446;-52
2021/07/15 05:20:54;;;;;;;;;12.00;10.25;;;;;23.04;50.64;101267.44;5076568;28;47397;-50
2021/07/15 05:23:20;;;;;;;;;11.00;11.00;;;;;23.05;50.70;101270.91;5076754;28;45465;-48
2021/07/15 05:25:46;;;;;;;;;10.00;10.00;;;;;23.05;50.52;101266.50;5076927;28;45402;-49
2021/07/15 05:28:11;;;;;;;;;14.00;13.00;;;;;23.04;50.66;101266.59;5078299;27;45667;-51
2021/07/15 05:30:37;;;;;;;;;9.00;9.00;;;;;23.05;50.63;101271.78;5078245;28;45208;-49
2021/07/15 05:33:03;;;;;;;;;10.75;8.25;;;;;23.06;50.72;101272.63;5077920;28;45238;-49
2021/07/15 05:35:28;;;;;;;;;10.25;10.00;;;;;23.05;50.66;101265.63;5076809;28;45389;-48
2021/07/15 05:37:53;;;;;;;;;10.25;10.00;;;;;23.04;50.47;101263.97;5078262;27;45437;-49
2021/07/15 05:40:19;;;;;;;;;8.50;7.50;;;;;23.05;50.45;101270.91;5077461;28;50979;-54
2021/07/15 05:42:44;;;;;;;;;10.25;10.25;;;;;23.06;50.77;101276.13;5077636;27;45412;-55
2021/07/15 05:45:10;;;;;;;;;11.75;10.25;;;;;23.06;50.53;101286.72;5077807;27;45326;-58
2021/07/15 05:47:35;;;;;;;;;8.75;8.75;;;;;23.05;50.71;101282.38;5078378;27;45233;-52
2021/07/15 05:50:01;;;;;;;;;11.75;10.50;;;;;23.05;50.42;101282.38;5077552;27;45509;-56
2021/07/15 05:52:26;;;;;;;;;11.25;11.25;;;;;23.05;50.27;101282.38;5077494;28;45310;-49
2021/07/15 05:54:56;;;;;;;;;9.50;8.25;;;;;23.06;50.47;101285.84;5077657;27;45406;-50
2021/07/15 05:57:22;;;;;;;;;8.50;8.50;;;;;23.07;50.54;101290.19;5077804;27;45537;-49
2021/07/15 05:59:47;;;;;;;;;8.50;8.50;;;;;23.07;50.46;101284.91;5077583;27;45338;-54
2021/07/15 06:02:12;;;;;;;;;10.75;8.75;;;;;23.06;50.61;101280.56;5077378;28;45257;-50
2021/07/15 06:04:38;;;;;;;;;9.00;7.50;;;;;23.06;50.47;101278.78;5077790;28;45543;-49
2021/07/15 06:07:03;;;;;;;;;8.75;7.75;;;;;23.07;50.37;101283.13;5077786;27;45366;-57
2021/07/15 06:09:28;;;;;;;;;9.25;9.25;;;;;23.05;50.70;101282.38;5075886;28;46344;-48
2021/07/15 06:11:54;;;;;;;;;9.00;9.00;;;;;23.07;50.51;101288.41;5077093;28;45236;-48
2021/07/15 06:14:19;;;;;;;;;8.00;8.00;;;;;23.07;50.36;101285.78;5077507;27;45248;-58
2021/07/15 06:16:44;;;;;;;;;9.00;6.75;;;;;23.08;50.39;101276.91;5077402;28;45326;-49
2021/07/15 06:19:10;;;;;;;;;11.25;10.00;;;;;23.07;50.25;101291.06;5077461;28;45406;-51
2021/07/15 06:21:35;;;;;;;;;10.00;9.00;;;;;23.06;50.45;101283.19;5077255;28;45371;-52
2021/07/15 06:24:01;;;;;;;;;11.50;9.50;;;;;23.07;50.42;101285.78;5076121;28;45484;-54
2021/07/15 06:26:26;;;;;;;;;8.00;8.00;;;;;23.07;50.64;101288.41;5077287;27;45272;-49
2021/07/15 06:28:51;;;;;;;;;8.25;8.00;;;;;23.08;50.42;101294.53;5076966;28;46188;-58
2021/07/15 06:31:17;;;;;;;;;10.50;10.00;;;;;23.08;50.38;101287.47;5075557;28;45510;-53
2021/07/15 06:33:42;;;;;;;;;9.25;9.25;;;;;23.08;50.36;101302.47;5077189;28;45346;-54
2021/07/15 06:36:09;;;;;;;;;8.75;8.75;;;;;23.07;50.26;101301.63;5076105;28;45426;-51
2021/07/15 06:38:36;;;;;;;;;10.25;10.25;;;;;23.07;50.24;101299.00;5076672;27;45477;-48
2021/07/15 06:41:05;;;;;;;;;8.25;7.75;;;;;23.08;50.60;101308.63;5075636;28;45308;-47
2021/07/15 06:43:31;;;;;;;;;8.00;8.00;;;;;23.06;50.69;101299.94;5077077;28;45679;-47
2021/07/15 06:45:57;;;;;;;;;10.00;9.50;;;;;23.08;50.43;101303.34;5077117;27;45406;-47
2021/07/15 06:48:22;;;;;;;;;10.50;9.75;;;;;23.08;50.23;101303.34;5076683;27;46195;-48
2021/07/15 06:50:48;;;;;;;;;12.00;9.25;;;;;23.10;50.54;101305.88;5075233;28;45417;-47
2021/07/15 06:53:13;;;;;;;;;11.50;10.25;;;;;23.10;50.34;101311.16;5076960;27;45270;-48
2021/07/15 06:55:39;;;;;;;;;11.25;8.50;;;;;23.09;50.39;101320.03;5077068;27;45319;-48
2021/07/15 06:58:06;;;;;;;;;9.25;9.00;;;;;23.10;50.52;101313.81;5076553;27;45439;-53
2021/07/15 07:00:32;;;;;;;;;10.25;9.00;;;;;23.09;50.79;101307.69;5075328;28;45767;-57
2021/07/15 07:02:57;;;;;;;;;8.25;8.25;;;;;23.08;50.23;101300.69;5076936;27;45236;-55
2021/07/15 07:05:23;;;;;;;;;8.00;8.00;;;;;23.10;50.33;101301.44;5076886;27;45391;-58
2021/07/15 07:07:48;;;;;;;;;9.25;8.25;;;;;23.11;50.53;101297.84;5076432;27;45879;-58
2021/07/15 07:10:16;;;;;;;;;11.75;11.75;;;;;23.10;50.43;101298.78;5076372;27;45433;-55
2021/07/15 07:12:42;;;;;;;;;8.00;8.00;;;;;23.08;50.32;101297.19;5076952;27;45445;-58
2021/07/15 07:15:10;;;;;;;;;8.50;8.50;;;;;23.11;50.57;101297.84;5076722;27;45420;-58
2021/07/15 07:17:36;;;;;;;;;8.75;8.75;;;;;23.08;50.60;101300.69;5076461;27;47590;-57
2021/07/15 07:20:02;;;;;;;;;8.00;8.00;;;;;23.12;50.56;101304.84;5076448;28;45224;-59
2021/07/15 07:22:27;;;;;;;;;10.50;9.75;;;;;23.12;50.30;101304.00;5076574;27;45286;-56
2021/07/15 07:24:53;;;;;;;;;9.75;8.00;;;;;23.10;50.70;101293.50;5058531;28;45666;-52
2021/07/15 07:27:18;;;;;;;;;7.75;7.75;;;;;23.11;50.42;101297.84;5076289;27;46875;-56
2021/07/15 07:29:43;;;;;;;;;9.00;9.00;;;;;23.12;50.67;101302.19;5075323;28;45275;-58
2021/07/15 07:32:09;;;;;;;;;7.00;7.00;;;;;23.12;50.31;101304.00;5076753;27;45355;-58
2021/07/15 07:34:34;;;;;;;;;9.00;8.00;;;;;23.13;50.58;101301.25;5076570;27;45355;-58
2021/07/15 07:37:00;;;;;;;;;11.50;9.00;;;;;23.14;50.41;101304.78;5079772;27;45359;-56
2021/07/15 07:39:26;;;;;;;;;11.50;10.25;;;;;23.14;50.21;101308.25;5079601;28;45272;-57
2021/07/15 07:41:51;;;;;;;;;12.00;9.25;;;;;23.14;50.28;101300.31;5079880;27;45397;-58
2021/07/15 07:44:17;;;;;;;;;9.50;9.50;;;;;23.15;50.55;101304.66;5080122;27;45592;-53
2021/07/15 07:46:42;;;;;;;;;10.50;10.25;;;;;23.15;50.22;101302.03;5079884;28;46367;-58
2021/07/15 07:49:08;;;;;;;;;8.50;7.25;;;;;23.16;50.22;101300.22;5079565;28;45458;-59
2021/07/15 07:51:33;;;;;;;;;9.75;9.25;;;;;23.15;50.53;101299.38;5079771;27;45440;-59
2021/07/15 07:53:59;;;;;;;;;9.00;9.00;;;;;23.12;50.35;101293.44;5079801;27;45651;-49
2021/07/15 07:56:24;;;;;;;;;6.50;6.50;;;;;23.13;50.35;101298.63;5079288;27;46555;-51
2021/07/15 07:58:50;;;;;;;;;11.00;8.00;;;;;23.17;50.36;101308.09;5079394;28;45334;-46
2021/07/15 08:01:16;;;;;;;;;10.25;9.50;;;;;23.17;50.39;101307.22;5079781;27;45520;-51
2021/07/15 08:03:41;;;;;;;;;9.00;9.00;;;;;23.16;50.35;101311.66;5079973;27;45170;-51
2021/07/15 08:06:07;;;;;;;;;12.00;9.75;;;;;23.16;50.37;101306.38;5079226;27;45986;-50
2021/07/15 08:08:34;;;;;;;;;9.25;9.25;;;;;23.17;50.20;101292.22;5079175;28;45208;-52
2021/07/15 08:11:00;;;;;;;;;12.50;10.00;;;;;23.19;50.62;101292.16;5079406;27;45236;-52
2021/07/15 08:13:25;;;;;;;;;10.50;7.75;;;;;23.17;50.46;101292.22;5079598;27;45165;-58
2021/07/15 08:15:50;;;;;;;;;10.75;9.00;;;;;23.12;50.61;101288.97;5079155;27;45991;-52
2021/07/15 08:18:16;;;;;;;;;6.25;6.25;;;;;23.20;50.19;101298.31;5079549;27;45428;-50
2021/07/15 08:20:41;;;;;;;;;10.00;9.00;;;;;23.20;50.28;101300.94;5079615;27;45762;-59
2021/07/15 08:23:06;;;;;;;;;8.50;8.00;;;;;23.20;50.44;101295.66;5079436;28;45465;-58
2021/07/15 08:25:32;;;;;;;;;6.50;6.25;;;;;23.18;50.09;101295.69;5078973;28;46092;-58
2021/07/15 08:27:58;;;;;;;;;8.50;8.00;;;;;23.19;50.24;101294.78;5079128;28;45309;-58
2021/07/15 08:30:23;;;;;;;;;7.75;7.75;;;;;23.20;50.43;101295.66;5079055;28;45410;-49
2021/07/15 08:32:49;;;;;;;;;10.00;9.25;;;;;23.21;50.44;101292.03;5079309;27;45452;-49
2021/07/15 08:35:15;;;;;;;;;7.00;7.00;;;;;23.20;50.45;101296.50;5079002;27;46326;-48
2021/07/15 08:37:40;;;;;;;;;11.50;11.00;;;;;23.20;50.33;101293.00;5078723;27;45406;-48
2021/07/15 08:40:08;;;;;;;;;10.00;8.25;;;;;23.18;50.00;101282.47;5078364;27;47822;-48
2021/07/15 08:42:36;;;;;;;;;8.00;8.00;;;;;23.21;50.36;101284.09;5078976;27;45223;-48
2021/07/15 08:45:03;;;;;;;;;11.00;10.00;;;;;23.21;50.45;101284.09;5078783;27;46654;-48
2021/07/15 08:47:30;;;;;;;;;9.75;7.50;;;;;23.20;50.45;101285.91;5077478;27;45807;-49
2021/07/15 08:49:55;;;;;;;;;9.75;9.50;;;;;23.20;50.48;101290.38;5078768;27;45314;-50
2021/07/15 08:52:21;;;;;;;;;7.75;7.75;;;;;23.24;50.26;101283.94;5078740;27;45342;-49
2021/07/15 08:57:32;;;;;;;;;10.00;10.00;;;;;23.24;50.33;101283.94;5067026;27;45759;-48
2021/07/15 08:59:58;;;;;;;;;9.00;9.00;;;;;23.24;50.02;101282.16;5077492;28;45323;-47
2021/07/15 09:02:24;;;;;;;;;10.75;7.75;;;;;23.26;50.04;101285.53;5078841;28;45350;-48
2021/07/15 09:04:51;;;;;;;;;8.75;8.75;;;;;23.26;50.20;101279.41;5078125;27;46073;-48
2021/07/15 09:07:17;;;;;;;;;11.00;9.00;;;;;23.26;49.99;101284.69;5078725;27;45368;-48
2021/07/15 09:09:46;;;;;;;;;11.00;11.00;;;;;23.28;50.13;101291.59;5078477;27;45264;-48
2021/07/15 09:12:16;;;;;;;;;10.75;10.00;;;;;23.27;50.05;101292.53;5077230;28;45354;-48
2021/07/15 09:14:48;;;;;;;;;10.25;9.25;;;;;23.29;50.43;101295.94;5078079;27;46381;-51
2021/07/15 09:17:14;;;;;;;;;10.25;10.25;;;;;23.28;50.27;101302.16;5078195;28;45344;-51
2021/07/15 09:19:41;;;;;;;;;9.00;9.00;;;;;23.29;50.56;101297.75;5078332;27;45260;-49
2021/07/15 09:22:11;;;;;;;;;11.75;10.00;;;;;23.28;50.21;101288.09;5078450;27;45349;-49
2021/07/15 09:24:41;;;;;;;;;11.25;10.50;;;;;23.30;49.95;101302.94;5078042;27;46724;-49
2021/07/15 09:27:10;;;;;;;;;10.50;9.25;;;;;23.29;50.22;101289.81;5078073;27;45800;-49
2021/07/15 09:29:35;;;;;;;;;10.25;8.50;;;;;23.28;50.04;101294.22;5078010;28;45382;-49
2021/07/15 09:32:02;;;;;;;;;11.00;10.25;;;;;23.30;49.97;101286.22;5076869;28;46099;-49
2021/07/15 09:34:32;;;;;;;;;14.00;10.00;;;;;23.31;50.10;101296.72;5077857;27;46401;-49
2021/07/15 09:37:07;;;;;;;;;8.50;8.50;;;;;23.32;49.91;101294.91;5077366;27;45828;-49
2021/07/15 09:39:46;;;;;;;;;11.00;9.75;;;;;23.33;49.90;101299.25;5077920;28;45471;-52
2021/07/15 09:42:15;;;;;;;;;9.00;9.00;;;;;23.33;50.01;101299.25;5078140;27;45485;-49
2021/07/15 09:44:43;;;;;;;;;9.25;9.25;;;;;23.32;50.01;101302.81;5076610;27;47342;-48
2021/07/15 09:47:35;;;;;;;;;10.25;9.50;;;;;23.34;49.93;101314.19;5077715;27;45410;-52
2021/07/15 09:50:21;;;;;;;;;10.00;8.50;;;;;23.34;50.03;101311.53;5077749;27;45247;-50
2021/07/15 09:52:47;;;;;;;;;11.00;10.00;;;;;23.35;50.16;101317.69;5078391;28;45615;-49
2021/07/15 09:55:20;;;;;;;;;12.25;9.25;;;;;23.36;49.76;101316.75;5077378;27;45313;-49
2021/07/15 09:57:46;;;;;;;;;10.00;10.00;;;;;23.33;49.71;101307.19;5077899;27;45611;-49
2021/07/15 10:00:12;;;;;;;;;9.50;9.50;;;;;23.36;50.26;101314.09;5077663;27;45379;-50
2021/07/15 10:02:38;;;;;;;;;12.25;10.25;;;;;23.35;49.77;101309.75;5077803;27;45310;-50
2021/07/15 10:05:03;;;;;;;;;9.25;9.25;;;;;23.36;49.93;101317.59;5077353;27;46412;-57
2021/07/15 10:07:29;;;;;;;;;8.50;8.00;;;;;23.37;49.81;101313.16;5077181;27;45450;-57
2021/07/15 10:10:30;;;;;;;;;10.00;10.00;;;;;23.38;49.60;101312.19;5077589;27;45332;-59
2021/07/15 10:12:56;;;;;;;;;10.50;10.00;;;;;23.38;49.44;101310.41;4995427;28;45461;-58
2021/07/15 10:15:21;;;;;;;;;10.75;9.25;;;;;23.38;49.64;101310.41;5060324;27;45415;-52
2021/07/15 10:17:48;;;;;;;;;10.25;9.50;;;;;23.39;49.86;101311.25;5077100;27;45370;-60
2021/07/15 10:20:17;;;;;;;;;9.50;9.50;;;;;23.39;49.29;101309.47;5078947;27;45381;-52
2021/07/15 10:22:44;;;;;;;;;9.50;9.50;;;;;23.40;49.74;101310.31;5077501;27;45277;-54
2021/07/15 10:25:11;;;;;;;;;11.25;11.00;;;;;23.36;49.71;101299.06;5077244;27;45351;-50
2021/07/15 10:27:38;;;;;;;;;10.75;10.75;;;;;23.38;49.39;101314.84;5077045;27;45389;-50
2021/07/15 10:30:09;;;;;;;;;11.00;9.75;;;;;23.39;49.75;101317.41;5077098;27;45440;-52
2021/07/15 10:32:36;;;;;;;;;10.00;10.00;;;;;23.37;49.53;101314.00;5077218;27;45497;-48
2021/07/15 10:35:08;;;;;;;;;10.50;9.00;;;;;23.37;49.52;101308.72;5076788;27;46393;-49
2021/07/15 10:37:39;;;;;;;;;9.00;9.00;;;;;23.39;49.90;101309.47;5076898;27;45226;-48
2021/07/15 10:40:08;;;;;;;;;10.50;10.50;;;;;23.39;49.34;101312.13;5076809;28;45339;-50
2021/07/15 10:42:34;;;;;;;;;8.50;8.50;;;;;23.42;49.32;101325.16;5077034;27;45215;-50
2021/07/15 10:44:59;;;;;;;;;10.25;9.25;;;;;23.41;49.49;101320.81;5075125;28;46205;-51
2021/07/15 10:47:26;;;;;;;;;8.50;8.50;;;;;23.42;49.30;101319.88;5076790;27;45438;-48
2021/07/15 10:49:54;;;;;;;;;10.00;9.00;;;;;23.42;49.57;101311.94;5077259;27;45393;-48
2021/07/15 10:52:20;;;;;;;;;9.50;9.50;;;;;23.44;49.50;101314.47;5077330;27;45428;-48
2021/07/15 10:54:46;;;;;;;;;10.00;10.00;;;;;23.44;49.57;101319.78;5076711;27;46620;-49
2021/07/15 10:57:12;;;;;;;;;10.25;9.00;;;;;23.45;49.50;101311.72;5076644;27;45219;-49
2021/07/15 10:59:37;;;;;;;;;9.25;8.25;;;;;23.46;49.25;101323.19;5075473;28;45271;-49
2021/07/15 11:02:18;;;;;;;;;10.50;9.50;;;;;23.45;49.40;101319.66;5076901;27;45582;-49
2021/07/15 11:04:44;;;;;;;;;10.00;10.00;;;;;23.45;49.30;101327.59;5076726;28;45444;-51
2021/07/15 11:07:22;;;;;;;;;10.25;10.25;;;;;23.45;49.12;101327.59;5076767;27;45467;-53
2021/07/15 11:09:48;;;;;;;;;9.50;9.00;;;;;23.45;49.54;101317.03;5076884;28;45418;-50
2021/07/15 11:12:32;;;;;;;;;10.00;10.00;;;;;23.47;49.30;101312.50;5083616;27;45564;-49
2021/07/15 11:15:10;;;;;;;;;11.25;9.75;;;;;23.47;49.30;101315.16;5083040;27;46920;-57
2021/07/15 11:17:54;;;;;;;;;11.00;10.75;;;;;23.49;49.02;101307.09;5083302;27;45299;-53
2021/07/15 11:20:31;;;;;;;;;10.50;10.00;;;;;23.49;49.09;101311.56;5083729;28;45245;-49
2021/07/15 11:22:58;;;;;;;;;10.00;10.00;;;;;23.49;49.08;101304.47;5083412;27;45369;-57